Time;durP1;ratioP1;P1;durP2;ratioP2;P2;SDS_P1;SDS_P2;PMS_P1;PMS_P2;Temp;Humidity;BMP_temperature;BMP_pressure;BME280_temperature;BME280_humidity;BME280_pressure;Samples;Min_cycle;Max_cycle;Signal;HPM_P1;HPM_P2
2021/07/04 00:00:24;;;;;;;7.50;6.65;;;;;;;;;;6220630;23;20031;-59
2021/07/04 00:02:51;;;;;;;7.90;7.10;;;;;;;;;;6246493;23;20008;-59
2021/07/04 00:05:18;;;;;;;7.40;6.70;;;;;;;;;;6247314;23;20512;-59
2021/07/04 00:07:44;;;;;;;7.15;6.55;;;;;;;;;;6247113;23;20004;-59
2021/07/04 00:10:11;;;;;;;12.25;7.35;;;;;;;;;;6247230;23;20365;-59
2021/07/04 00:12:36;;;;;;;10.13;7.25;;;;;;;;;;6246597;23;20020;-59
2021/07/04 00:15:03;;;;;;;6.68;6.07;;;;;;;;;;6246844;23;20359;-59
2021/07/04 00:17:29;;;;;;;8.70;6.53;;;;;;;;;;6220027;23;20012;-59
2021/07/04 00:19:54;;;;;;;7.40;6.65;;;;;;;;;;6247029;23;20481;-59
2021/07/04 00:22:19;;;;;;;7.80;6.78;;;;;;;;;;6247009;23;20008;-59
2021/07/04 00:24:45;;;;;;;7.55;6.75;;;;;;;;;;6246916;23;20421;-59
2021/07/04 00:27:10;;;;;;;7.80;7.00;;;;;;;;;;6246590;23;20328;-60
2021/07/04 00:29:36;;;;;;;7.63;6.32;;;;;;;;;;6247278;23;20034;-59
2021/07/04 00:32:01;;;;;;;9.48;7.43;;;;;;;;;;6246931;23;20394;-58
2021/07/04 00:34:28;;;;;;;8.15;6.57;;;;;;;;;;6246874;23;20000;-59
2021/07/04 00:36:54;;;;;;;7.53;6.65;;;;;;;;;;6246834;23;20057;-59
2021/07/04 00:39:19;;;;;;;6.85;6.25;;;;;;;;;;6220160;23;20000;-59
2021/07/04 00:41:45;;;;;;;6.68;6.00;;;;;;;;;;6246961;23;20342;-59
2021/07/04 00:44:10;;;;;;;6.82;6.20;;;;;;;;;;6219787;23;20007;-59
2021/07/04 00:46:36;;;;;;;6.40;5.88;;;;;;;;;;6219993;23;20008;-59
2021/07/04 00:49:01;;;;;;;6.90;6.20;;;;;;;;;;6219992;23;20301;-59
2021/07/04 00:51:29;;;;;;;8.15;6.70;;;;;;;;;;6219925;23;20004;-59
2021/07/04 00:53:54;;;;;;;7.43;6.53;;;;;;;;;;6219815;23;20007;-59
2021/07/04 00:56:21;;;;;;;9.43;7.30;;;;;;;;;;6195061;23;20015;-59
2021/07/04 00:58:47;;;;;;;9.18;6.78;;;;;;;;;;6246713;23;20004;-59
2021/07/04 01:01:12;;;;;;;7.88;6.40;;;;;;;;;;6219850;23;20440;-59
2021/07/04 01:03:38;;;;;;;7.15;6.40;;;;;;;;;;6246555;23;19996;-59
2021/07/04 01:06:04;;;;;;;8.60;6.68;;;;;;;;;;6219912;23;20004;-59
2021/07/04 01:08:29;;;;;;;7.15;6.00;;;;;;;;;;6219806;23;20320;-59
2021/07/04 01:10:57;;;;;;;8.23;6.22;;;;;;;;;;6219831;23;20035;-59
2021/07/04 01:13:28;;;;;;;8.15;6.35;;;;;;;;;;6195464;23;20094;-59
2021/07/04 01:16:09;;;;;;;6.50;5.88;;;;;;;;;;6219876;23;20008;-58
2021/07/04 01:18:35;;;;;;;6.75;6.15;;;;;;;;;;6246640;23;20439;-59
2021/07/04 01:21:04;;;;;;;7.43;6.07;;;;;;;;;;6219341;23;20305;-59
2021/07/04 01:23:34;;;;;;;6.70;6.07;;;;;;;;;;6246774;23;20008;-59
2021/07/04 01:26:02;;;;;;;7.05;6.35;;;;;;;;;;6219755;23;20092;-59
2021/07/04 01:28:30;;;;;;;6.85;6.20;;;;;;;;;;6219495;23;20016;-59
2021/07/04 01:31:02;;;;;;;;;;;;;;;;;;6220132;23;20003;-59
2021/07/04 01:33:31;;;;;;;7.22;5.88;;;;;;;;;;6246549;23;19904;-59
2021/07/04 01:35:57;;;;;;;7.07;6.47;;;;;;;;;;6219472;23;20054;-59
2021/07/04 01:38:27;;;;;;;;;;;;;;;;;;6220027;23;20066;-59
2021/07/04 01:40:53;;;;;;;6.73;6.13;;;;;;;;;;6246372;23;20275;-59
2021/07/04 01:43:18;;;;;;;7.57;6.82;;;;;;;;;;6219223;23;20330;-59
2021/07/04 01:45:45;;;;;;;9.75;7.50;;;;;;;;;;6219377;23;20024;-59
2021/07/04 01:48:13;;;;;;;7.60;6.72;;;;;;;;;;6246233;23;20007;-59
2021/07/04 01:50:43;;;;;;;8.00;6.53;;;;;;;;;;6219439;23;20003;-59
2021/07/04 01:53:10;;;;;;;6.90;6.25;;;;;;;;;;6219528;23;20008;-59
2021/07/04 01:55:36;;;;;;;7.30;6.35;;;;;;;;;;6219562;23;20424;-59
2021/07/04 01:58:02;;;;;;;6.63;5.93;;;;;;;;;;6219400;23;20502;-59
2021/07/04 02:00:37;;;;;;;6.25;5.75;;;;;;;;;;6196295;23;20084;-59
2021/07/04 02:03:09;;;;;;;6.70;6.10;;;;;;;;;;6219117;23;20335;-59
2021/07/04 02:05:40;;;;;;;6.13;5.57;;;;;;;;;;6219274;23;20007;-59
2021/07/04 02:08:09;;;;;;;8.88;6.60;;;;;;;;;;6246199;23;20032;-59
2021/07/04 02:10:37;;;;;;;6.93;6.30;;;;;;;;;;6219388;23;20070;-59
2021/07/04 02:13:05;;;;;;;7.25;6.65;;;;;;;;;;6218836;23;20111;-59
2021/07/04 02:15:32;;;;;;;7.28;6.57;;;;;;;;;;6219528;23;20000;-59
2021/07/04 02:18:04;;;;;;;7.18;6.57;;;;;;;;;;6219431;23;20023;-59
2021/07/04 02:20:50;;;;;;;6.20;5.68;;;;;;;;;;6246192;23;20039;-59
2021/07/04 02:23:28;;;;;;;9.10;6.77;;;;;;;;;;6245933;23;20062;-59
2021/07/04 02:26:12;;;;;;;8.02;6.45;;;;;;;;;;6246191;23;20066;-59
2021/07/04 02:28:42;;;;;;;7.33;6.57;;;;;;;;;;6219365;23;20006;-59
2021/07/04 02:31:13;;;;;;;10.57;7.57;;;;;;;;;;6219275;23;20327;-59
2021/07/04 02:33:40;;;;;;;9.27;8.40;;;;;;;;;;6218920;23;20317;-59
2021/07/04 02:36:07;;;;;;;8.48;7.35;;;;;;;;;;6219056;23;19997;-59
2021/07/04 02:38:33;;;;;;;7.65;6.95;;;;;;;;;;6218561;23;20425;-59
2021/07/04 02:40:59;;;;;;;7.43;6.72;;;;;;;;;;6219178;23;20000;-59
2021/07/04 02:43:25;;;;;;;9.30;6.72;;;;;;;;;;6218926;23;20062;-59
2021/07/04 02:45:54;;;;;;;7.43;6.15;;;;;;;;;;6194695;23;20003;-59
2021/07/04 02:48:20;;;;;;;7.18;6.57;;;;;;;;;;6219177;23;20004;-59
2021/07/04 02:50:52;;;;;;;6.93;6.40;;;;;;;;;;6219129;23;19996;-59
2021/07/04 02:53:23;;;;;;;8.02;7.22;;;;;;;;;;6245909;23;20016;-59
2021/07/04 02:55:51;;;;;;;8.38;7.13;;;;;;;;;;6218928;23;20012;-59
2021/07/04 02:58:20;;;;;;;7.40;6.70;;;;;;;;;;6218916;23;20004;-59
2021/07/04 03:00:46;;;;;;;7.20;6.50;;;;;;;;;;6218914;23;20008;-59
2021/07/04 03:03:13;;;;;;;7.13;6.50;;;;;;;;;;6218779;23;20000;-59
2021/07/04 03:05:42;;;;;;;7.57;6.85;;;;;;;;;;6219196;23;20000;-59
2021/07/04 03:08:08;;;;;;;7.82;7.05;;;;;;;;;;6245312;23;20064;-59
2021/07/04 03:10:33;;;;;;;7.93;7.22;;;;;;;;;;6219262;23;20429;-59
2021/07/04 03:12:59;;;;;;;7.75;7.13;;;;;;;;;;6218116;23;20321;-59
2021/07/04 03:15:26;;;;;;;8.48;7.50;;;;;;;;;;6218758;23;20058;-59
2021/07/04 03:17:51;;;;;;;7.68;7.00;;;;;;;;;;6245694;23;19996;-59
2021/07/04 03:20:20;;;;;;;7.50;6.80;;;;;;;;;;6218779;23;20345;-59
2021/07/04 03:22:51;;;;;;;7.90;7.22;;;;;;;;;;6195134;23;20019;-59
2021/07/04 03:25:17;;;;;;;7.65;6.93;;;;;;;;;;6245609;23;20435;-59
2021/07/04 03:27:44;;;;;;;8.52;7.45;;;;;;;;;;6245748;23;20046;-59
2021/07/04 03:30:12;;;;;;;8.23;7.43;;;;;;;;;;6218711;23;20340;-59
2021/07/04 03:32:38;;;;;;;7.90;7.20;;;;;;;;;;6218827;23;20015;-59
2021/07/04 03:35:06;;;;;;;7.80;7.10;;;;;;;;;;6218942;23;20343;-59
2021/07/04 03:37:32;;;;;;;8.45;7.65;;;;;;;;;;6218774;23;20070;-59
2021/07/04 03:39:58;;;;;;;11.07;7.47;;;;;;;;;;6218659;23;20008;-59
2021/07/04 03:42:23;;;;;;;7.82;7.13;;;;;;;;;;6218853;23;20006;-59
2021/07/04 03:44:49;;;;;;;8.32;7.53;;;;;;;;;;6245666;23;20031;-59
2021/07/04 03:47:15;;;;;;;9.35;8.05;;;;;;;;;;6218895;23;20075;-59
2021/07/04 03:49:40;;;;;;;8.88;7.97;;;;;;;;;;6218869;23;20023;-59
2021/07/04 03:52:10;;;;;;;9.55;8.15;;;;;;;;;;6220465;23;20328;-59
2021/07/04 03:54:36;;;;;;;12.02;8.80;;;;;;;;;;6220525;23;20459;-59
2021/07/04 03:57:21;;;;;;;8.85;8.05;;;;;;;;;;6220596;23;20039;-59
2021/07/04 03:59:50;;;;;;;8.65;7.82;;;;;;;;;;6220473;23;20099;-59
2021/07/04 04:02:16;;;;;;;9.38;8.48;;;;;;;;;;6220404;23;20008;-59
2021/07/04 04:04:43;;;;;;;11.55;9.13;;;;;;;;;;6246740;23;20015;-59
2021/07/04 04:07:08;;;;;;;10.02;8.85;;;;;;;;;;6220271;23;20059;-59
2021/07/04 04:09:37;;;;;;;9.68;8.68;;;;;;;;;;6220457;23;20008;-59
2021/07/04 04:12:05;;;;;;;9.43;7.82;;;;;;;;;;6246886;23;19996;-59
2021/07/04 04:14:34;;;;;;;9.95;7.85;;;;;;;;;;6220394;23;20340;-59
2021/07/04 04:17:03;;;;;;;10.00;8.57;;;;;;;;;;6220151;23;20337;-59
2021/07/04 04:19:34;;;;;;;9.52;8.15;;;;;;;;;;6220446;23;20008;-59
2021/07/04 04:22:01;;;;;;;8.90;7.45;;;;;;;;;;6220387;23;20314;-59
2021/07/04 04:24:26;;;;;;;8.93;7.95;;;;;;;;;;6220002;23;20003;-59
2021/07/04 04:26:53;;;;;;;8.13;6.95;;;;;;;;;;6220144;23;20336;-59
2021/07/04 04:29:19;;;;;;;8.60;7.70;;;;;;;;;;6220224;23;20026;-59
2021/07/04 04:31:46;;;;;;;7.95;7.15;;;;;;;;;;6247099;23;20004;-59
2021/07/04 04:34:12;;;;;;;10.07;7.22;;;;;;;;;;6246886;23;19995;-59
2021/07/04 04:36:38;;;;;;;8.75;7.82;;;;;;;;;;6247028;23;20012;-59
2021/07/04 04:39:06;;;;;;;9.30;7.82;;;;;;;;;;6246826;23;19996;-59
2021/07/04 04:41:33;;;;;;;8.10;7.40;;;;;;;;;;6220223;23;20079;-59
2021/07/04 04:43:59;;;;;;;8.25;7.43;;;;;;;;;;6219922;23;20054;-59
2021/07/04 04:46:25;;;;;;;8.05;7.35;;;;;;;;;;6246761;23;20332;-59
2021/07/04 04:48:50;;;;;;;8.23;7.43;;;;;;;;;;6246880;23;19999;-59
2021/07/04 04:51:16;;;;;;;8.15;7.32;;;;;;;;;;6220183;23;20004;-59
2021/07/04 04:53:42;;;;;;;9.70;7.53;;;;;;;;;;6246892;23;20000;-59
2021/07/04 04:56:07;;;;;;;9.60;7.82;;;;;;;;;;6220002;23;20352;-59
2021/07/04 04:58:33;;;;;;;7.93;7.22;;;;;;;;;;6246354;23;20000;-59
2021/07/04 05:01:00;;;;;;;8.05;7.25;;;;;;;;;;6246528;23;20012;-59
2021/07/04 05:03:25;;;;;;;8.27;7.45;;;;;;;;;;6246330;23;20031;-59
2021/07/04 05:05:50;;;;;;;9.32;7.10;;;;;;;;;;6246532;23;20011;-59
2021/07/04 05:08:16;;;;;;;8.55;7.30;;;;;;;;;;6246614;23;19996;-59
2021/07/04 05:10:41;;;;;;;9.70;7.25;;;;;;;;;;6246556;23;20028;-59
2021/07/04 05:13:07;;;;;;;7.82;7.07;;;;;;;;;;6245975;23;20344;-59
2021/07/04 05:15:32;;;;;;;8.00;7.30;;;;;;;;;;6246450;23;20373;-59
2021/07/04 05:17:58;;;;;;;7.28;6.57;;;;;;;;;;6246479;23;20050;-59
2021/07/04 05:20:23;;;;;;;9.00;6.72;;;;;;;;;;6246518;23;20000;-59
2021/07/04 05:22:49;;;;;;;8.10;6.72;;;;;;;;;;6246473;23;19992;-59
2021/07/04 05:25:14;;;;;;;7.88;7.05;;;;;;;;;;6246454;23;20103;-59
2021/07/04 05:27:40;;;;;;;8.93;8.05;;;;;;;;;;6220003;23;20062;-59
2021/07/04 05:30:06;;;;;;;9.93;7.43;;;;;;;;;;6246337;23;20079;-59
2021/07/04 05:32:31;;;;;;;9.10;6.72;;;;;;;;;;6246269;23;19992;-59
2021/07/04 05:34:58;;;;;;;7.38;6.68;;;;;;;;;;6246382;23;20015;-59
2021/07/04 05:37:23;;;;;;;7.80;7.03;;;;;;;;;;6246372;23;20004;-59
2021/07/04 05:39:49;;;;;;;8.80;7.00;;;;;;;;;;6219479;23;20460;-59
2021/07/04 05:42:14;;;;;;;7.20;6.60;;;;;;;;;;6246156;23;20007;-59
2021/07/04 05:44:39;;;;;;;8.52;6.88;;;;;;;;;;6246273;23;20011;-59
2021/07/04 05:47:05;;;;;;;7.40;6.53;;;;;;;;;;6246255;23;20016;-59
2021/07/04 05:49:31;;;;;;;7.90;6.32;;;;;;;;;;6246266;23;20001;-59
2021/07/04 05:51:56;;;;;;;7.10;6.30;;;;;;;;;;6246243;23;20447;-59
2021/07/04 05:54:23;;;;;;;6.53;5.93;;;;;;;;;;6245680;23;20004;-59
2021/07/04 05:56:48;;;;;;;7.28;6.10;;;;;;;;;;6246153;23;20004;-59
2021/07/04 05:59:15;;;;;;;5.95;5.45;;;;;;;;;;6246210;23;20019;-59
2021/07/04 06:01:41;;;;;;;6.03;5.28;;;;;;;;;;6246240;23;20058;-59
2021/07/04 06:04:07;;;;;;;6.18;5.60;;;;;;;;;;6246039;23;20004;-59
2021/07/04 06:06:32;;;;;;;5.82;5.32;;;;;;;;;;6246057;23;20324;-59
2021/07/04 06:08:58;;;;;;;5.55;5.05;;;;;;;;;;6246033;23;20011;-59
2021/07/04 06:11:23;;;;;;;5.72;4.85;;;;;;;;;;6219177;23;19996;-59
2021/07/04 06:13:49;;;;;;;6.93;5.00;;;;;;;;;;6218850;23;20027;-59
2021/07/04 06:16:15;;;;;;;5.60;4.85;;;;;;;;;;6246099;23;20004;-59
2021/07/04 06:18:40;;;;;;;6.40;4.65;;;;;;;;;;6219133;23;20004;-59
2021/07/04 06:21:06;;;;;;;8.75;4.40;;;;;;;;;;6245951;23;20015;-59
2021/07/04 06:23:31;;;;;;;4.97;4.65;;;;;;;;;;6245842;23;20314;-59
2021/07/04 06:25:57;;;;;;;4.90;4.50;;;;;;;;;;6219142;23;20332;-59
2021/07/04 06:28:22;;;;;;;4.90;4.20;;;;;;;;;;6246015;23;20439;-59
2021/07/04 06:30:47;;;;;;;4.65;4.25;;;;;;;;;;6246045;23;20008;-59
2021/07/04 06:33:14;;;;;;;4.50;4.05;;;;;;;;;;6246006;23;19996;-59
2021/07/04 06:35:40;;;;;;;5.10;4.05;;;;;;;;;;6245958;23;20038;-59
2021/07/04 06:38:05;;;;;;;4.57;4.07;;;;;;;;;;6245917;23;19992;-59
2021/07/04 06:40:31;;;;;;;4.18;3.97;;;;;;;;;;6245954;23;20005;-59
2021/07/04 06:42:56;;;;;;;4.55;4.15;;;;;;;;;;6246068;23;20078;-59
2021/07/04 06:45:22;;;;;;;4.38;3.88;;;;;;;;;;6245771;23;20011;-59
2021/07/04 06:47:48;;;;;;;4.75;4.20;;;;;;;;;;6218736;23;20000;-59
2021/07/04 06:50:15;;;;;;;4.40;4.00;;;;;;;;;;6245915;23;20095;-59
2021/07/04 06:52:42;;;;;;;4.18;3.88;;;;;;;;;;6245822;23;20023;-59
2021/07/04 06:55:08;;;;;;;5.03;4.63;;;;;;;;;;6245666;23;20428;-59
2021/07/04 06:57:33;;;;;;;4.80;4.40;;;;;;;;;;6245839;23;19996;-59
2021/07/04 07:00:00;;;;;;;4.45;3.95;;;;;;;;;;6245833;23;20012;-59
2021/07/04 07:02:26;;;;;;;4.00;3.70;;;;;;;;;;6219080;23;20078;-59
2021/07/04 07:04:52;;;;;;;4.03;3.70;;;;;;;;;;6245561;23;20339;-59
2021/07/04 07:07:18;;;;;;;4.22;3.92;;;;;;;;;;6218797;23;20028;-59
2021/07/04 07:09:43;;;;;;;3.95;3.60;;;;;;;;;;6245825;23;20001;-59
2021/07/04 07:12:09;;;;;;;4.72;3.85;;;;;;;;;;6245471;23;20046;-59
2021/07/04 07:14:34;;;;;;;3.90;3.63;;;;;;;;;;6245824;23;20448;-59
2021/07/04 07:17:00;;;;;;;3.97;3.58;;;;;;;;;;6245674;23;20039;-59
2021/07/04 07:19:25;;;;;;;4.15;3.75;;;;;;;;;;6245638;23;20011;-59
2021/07/04 07:21:51;;;;;;;3.95;3.60;;;;;;;;;;6218623;23;20007;-59
2021/07/04 07:24:16;;;;;;;4.55;4.22;;;;;;;;;;6245534;23;20008;-59
2021/07/04 07:26:45;;;;;;;4.05;3.72;;;;;;;;;;6220702;23;20006;-59
2021/07/04 07:29:11;;;;;;;3.97;3.67;;;;;;;;;;6247717;23;20004;-59
2021/07/04 07:31:37;;;;;;;4.15;3.80;;;;;;;;;;6220753;23;20024;-59
2021/07/04 07:34:03;;;;;;;3.83;3.45;;;;;;;;;;6247700;23;20340;-59
2021/07/04 07:36:30;;;;;;;4.53;3.80;;;;;;;;;;6220831;23;20057;-59
2021/07/04 07:38:56;;;;;;;4.30;3.90;;;;;;;;;;6220792;23;20004;-59
2021/07/04 07:41:21;;;;;;;3.80;3.50;;;;;;;;;;6247550;23;20000;-59
2021/07/04 07:43:48;;;;;;;5.47;3.42;;;;;;;;;;6220433;23;20020;-59
2021/07/04 07:46:14;;;;;;;4.55;4.07;;;;;;;;;;6247554;23;20336;-59
2021/07/04 07:48:40;;;;;;;4.68;3.85;;;;;;;;;;6220593;23;20083;-59
2021/07/04 07:51:14;;;;;;;4.03;3.70;;;;;;;;;;6247545;23;20050;-59
2021/07/04 07:53:41;;;;;;;4.20;3.63;;;;;;;;;;6247297;23;20094;-59
2021/07/04 07:56:07;;;;;;;3.65;3.35;;;;;;;;;;6220494;23;20024;-59
2021/07/04 07:58:45;;;;;;;5.35;3.65;;;;;;;;;;6247288;23;20039;-59
2021/07/04 08:01:12;;;;;;;4.35;3.70;;;;;;;;;;6247358;23;20386;-59
2021/07/04 08:03:39;;;;;;;4.22;3.85;;;;;;;;;;6220271;23;20004;-59
2021/07/04 08:06:04;;;;;;;4.18;3.88;;;;;;;;;;6247257;23;20000;-59
2021/07/04 08:08:30;;;;;;;5.57;4.13;;;;;;;;;;6247167;23;20368;-59
2021/07/04 08:10:56;;;;;;;3.95;3.60;;;;;;;;;;6247238;23;20004;-59
2021/07/04 08:13:21;;;;;;;4.50;4.10;;;;;;;;;;6246688;23;20563;-59
2021/07/04 08:15:46;;;;;;;4.78;4.38;;;;;;;;;;6247348;23;20004;-59
2021/07/04 08:18:13;;;;;;;4.32;3.97;;;;;;;;;;6247299;23;20018;-59
2021/07/04 08:20:38;;;;;;;3.80;3.50;;;;;;;;;;6220150;23;20111;-59
2021/07/04 08:23:04;;;;;;;3.45;3.17;;;;;;;;;;6247128;23;20429;-59
2021/07/04 08:25:30;;;;;;;4.22;3.83;;;;;;;;;;6220111;23;20012;-59
2021/07/04 08:27:56;;;;;;;3.30;3.10;;;;;;;;;;6220459;23;20000;-58
2021/07/04 08:30:22;;;;;;;4.10;3.75;;;;;;;;;;6247016;23;20000;-59
2021/07/04 08:32:47;;;;;;;4.05;3.75;;;;;;;;;;6247083;23;20062;-59
2021/07/04 08:35:14;;;;;;;4.05;3.75;;;;;;;;;;6247056;23;20432;-59
2021/07/04 08:37:39;;;;;;;3.80;3.50;;;;;;;;;;6245797;23;20003;-59
2021/07/04 08:40:07;;;;;;;5.32;3.75;;;;;;;;;;6247112;23;20008;-59
2021/07/04 08:42:33;;;;;;;4.32;3.92;;;;;;;;;;6247028;23;20061;-59
2021/07/04 08:44:58;;;;;;;3.33;3.05;;;;;;;;;;6246960;23;20008;-59
2021/07/04 08:47:24;;;;;;;3.38;3.10;;;;;;;;;;6246994;23;19992;-59
2021/07/04 08:49:50;;;;;;;3.67;3.38;;;;;;;;;;6246758;23;20004;-59
2021/07/04 08:52:16;;;;;;;4.70;3.45;;;;;;;;;;6246839;23;20302;-59
2021/07/04 08:54:42;;;;;;;3.80;3.50;;;;;;;;;;6246931;23;20008;-59
2021/07/04 08:57:11;;;;;;;3.97;3.67;;;;;;;;;;6246853;23;20011;-59
2021/07/04 08:59:40;;;;;;;7.63;4.40;;;;;;;;;;6246659;23;20008;-59
2021/07/04 09:02:10;;;;;;;4.05;3.72;;;;;;;;;;6246716;23;20000;-59
2021/07/04 09:04:36;;;;;;;4.20;3.55;;;;;;;;;;6219998;23;20015;-59
2021/07/04 09:07:02;;;;;;;3.92;3.50;;;;;;;;;;6219823;23;19996;-59
2021/07/04 09:09:28;;;;;;;3.90;3.60;;;;;;;;;;6246664;23;20082;-59
2021/07/04 09:11:56;;;;;;;4.35;3.08;;;;;;;;;;6246620;23;20018;-59
2021/07/04 09:14:31;;;;;;;3.78;3.47;;;;;;;;;;6246453;23;20047;-59
2021/07/04 09:16:57;;;;;;;3.92;3.60;;;;;;;;;;6246885;23;20008;-59
2021/07/04 09:19:22;;;;;;;3.78;3.58;;;;;;;;;;6219790;23;20051;-59
2021/07/04 09:21:56;;;;;;;3.85;3.55;;;;;;;;;;6246628;23;20015;-59
2021/07/04 09:24:23;;;;;;;3.47;3.22;;;;;;;;;;6246474;23;20004;-59
2021/07/04 09:26:48;;;;;;;3.38;3.17;;;;;;;;;;6219686;23;20000;-59
2021/07/04 09:29:15;;;;;;;3.65;3.45;;;;;;;;;;6246346;23;20083;-59
2021/07/04 09:31:40;;;;;;;3.50;3.30;;;;;;;;;;6246079;23;19996;-59
2021/07/04 09:34:10;;;;;;;3.88;3.63;;;;;;;;;;6246474;23;20380;-59
2021/07/04 09:36:40;;;;;;;3.47;3.28;;;;;;;;;;6219694;23;20340;-59
2021/07/04 09:39:16;;;;;;;8.85;3.92;;;;;;;;;;6246385;23;20004;-59
2021/07/04 09:42:00;;;;;;;3.33;3.13;;;;;;;;;;6246332;23;20135;-59
2021/07/04 09:44:26;;;;;;;3.88;3.65;;;;;;;;;;6246465;23;20011;-59
2021/07/04 09:47:10;;;;;;;3.70;3.40;;;;;;;;;;6246286;23;19996;-59
2021/07/04 09:49:35;;;;;;;3.83;3.53;;;;;;;;;;6246053;23;20011;-59
2021/07/04 09:52:11;;;;;;;4.28;3.90;;;;;;;;;;6246175;23;20004;-59
2021/07/04 09:54:36;;;;;;;3.67;3.45;;;;;;;;;;6246107;23;20030;-59
2021/07/04 09:57:05;;;;;;;4.03;3.72;;;;;;;;;;6245978;23;19996;-59
2021/07/04 09:59:32;;;;;;;3.55;3.35;;;;;;;;;;6246242;23;20443;-59
2021/07/04 10:01:57;;;;;;;3.70;3.50;;;;;;;;;;6246143;23;20360;-59
2021/07/04 10:04:36;;;;;;;3.65;3.35;;;;;;;;;;6245960;23;20004;-59
2021/07/04 10:07:03;;;;;;;3.78;3.47;;;;;;;;;;6246123;23;20004;-59
2021/07/04 10:09:29;;;;;;;3.90;3.60;;;;;;;;;;6246067;23;20067;-59
2021/07/04 10:11:55;;;;;;;3.92;3.65;;;;;;;;;;6246043;23;20004;-59
2021/07/04 10:14:21;;;;;;;3.58;3.28;;;;;;;;;;6245977;23;20023;-59
2021/07/04 10:16:48;;;;;;;6.35;3.35;;;;;;;;;;6246109;23;20027;-59
2021/07/04 10:19:18;;;;;;;3.97;3.58;;;;;;;;;;6246021;23;20070;-59
2021/07/04 10:21:44;;;;;;;4.57;4.13;;;;;;;;;;6245911;23;20004;-59
2021/07/04 10:24:13;;;;;;;4.50;3.67;;;;;;;;;;6245763;23;20055;-59
2021/07/04 10:26:40;;;;;;;3.43;3.23;;;;;;;;;;6245994;23;20035;-59
2021/07/04 10:29:07;;;;;;;3.47;3.17;;;;;;;;;;6245801;23;20231;-59
2021/07/04 10:31:34;;;;;;;4.03;3.55;;;;;;;;;;6246050;23;20036;-59
2021/07/04 10:34:08;;;;;;;3.80;3.60;;;;;;;;;;6246144;23;20500;-59
2021/07/04 10:36:52;;;;;;;3.53;3.25;;;;;;;;;;6245910;23;20004;-59
2021/07/04 10:39:17;;;;;;;4.25;3.90;;;;;;;;;;6245861;23;20070;-59
2021/07/04 10:41:52;;;;;;;3.92;3.53;;;;;;;;;;6245743;23;20411;-59
2021/07/04 10:44:17;;;;;;;3.75;3.55;;;;;;;;;;6245852;23;20420;-59
2021/07/04 10:49:18;;;;;;;4.25;3.85;;;;;;;;;;6245928;23;20026;-59
2021/07/04 10:52:04;;;;;;;3.85;3.58;;;;;;;;;;6245873;23;20004;-59
2021/07/04 10:54:38;;;;;;;3.42;3.22;;;;;;;;;;6245696;23;20011;-59
2021/07/04 10:57:05;;;;;;;3.67;3.40;;;;;;;;;;6219113;23;20008;-59
2021/07/04 10:59:30;;;;;;;3.72;3.53;;;;;;;;;;6219271;23;20027;-59
2021/07/04 11:01:58;;;;;;;3.67;3.40;;;;;;;;;;6247911;23;20008;-59
2021/07/04 11:04:32;;;;;;;3.85;3.50;;;;;;;;;;6247941;23;19996;-59
2021/07/04 11:06:58;;;;;;;3.83;3.53;;;;;;;;;;6247817;23;20004;-59
2021/07/04 11:09:23;;;;;;;3.83;3.53;;;;;;;;;;6247845;23;20035;-59
2021/07/04 11:11:49;;;;;;;3.67;3.40;;;;;;;;;;6247749;23;20490;-59
2021/07/04 11:14:14;;;;;;;3.67;3.38;;;;;;;;;;6247651;23;20012;-59
2021/07/04 11:16:59;;;;;;;3.80;3.60;;;;;;;;;;6247734;23;20004;-59
2021/07/04 11:19:24;;;;;;;4.00;3.70;;;;;;;;;;6221043;23;20043;-59
2021/07/04 11:21:56;;;;;;;3.90;3.38;;;;;;;;;;6247473;23;19996;-59
2021/07/04 11:24:23;;;;;;;4.50;4.00;;;;;;;;;;6220704;23;20044;-59
2021/07/04 11:27:06;;;;;;;3.58;3.38;;;;;;;;;;6247821;23;20437;-59
2021/07/04 11:29:32;;;;;;;4.55;4.20;;;;;;;;;;6220908;23;20004;-59
2021/07/04 11:32:17;;;;;;;4.13;3.83;;;;;;;;;;6247648;23;20329;-59
2021/07/04 11:34:49;;;;;;;4.05;3.40;;;;;;;;;;6247453;23;20091;-59
2021/07/04 11:37:15;;;;;;;3.70;3.45;;;;;;;;;;6247622;23;20032;-59
2021/07/04 11:39:40;;;;;;;3.15;2.95;;;;;;;;;;6247600;23;19997;-59
2021/07/04 11:42:06;;;;;;;3.60;3.30;;;;;;;;;;6247615;23;20008;-59
2021/07/04 11:44:31;;;;;;;3.67;3.38;;;;;;;;;;6247417;23;20006;-59
2021/07/04 11:46:58;;;;;;;3.33;3.03;;;;;;;;;;6247508;23;20087;-59
2021/07/04 11:49:24;;;;;;;3.85;3.65;;;;;;;;;;6247593;23;20431;-59
2021/07/04 11:52:01;;;;;;;5.35;3.67;;;;;;;;;;6247424;23;20091;-59
2021/07/04 11:54:31;;;;;;;3.72;3.42;;;;;;;;;;6220487;23;20008;-59
2021/07/04 12:00:01;;;;;;;3.05;2.85;;;;;;;;;;6247548;23;20004;-59
2021/07/04 12:02:27;;;;;;;3.53;3.22;;;;;;;;;;6247446;23;20004;-59
2021/07/04 12:04:52;;;;;;;4.18;3.10;;;;;;;;;;6247266;23;19996;-59
2021/07/04 12:07:22;;;;;;;4.60;3.08;;;;;;;;;;6220435;23;20070;-59
2021/07/04 12:09:49;;;;;;;3.75;3.42;;;;;;;;;;6247264;23;19999;-59
2021/07/04 12:12:14;;;;;;;3.15;2.95;;;;;;;;;;6246719;23;20000;-59
2021/07/04 12:14:40;;;;;;;3.03;2.83;;;;;;;;;;6247278;23;20008;-59
2021/07/04 12:17:17;;;;;;;3.28;3.08;;;;;;;;;;6246904;23;20323;-59
2021/07/04 12:19:43;;;;;;;3.30;3.10;;;;;;;;;;6220411;23;20012;-59
2021/07/04 12:22:10;;;;;;;3.30;3.03;;;;;;;;;;6247272;23;19997;-59
2021/07/04 12:24:37;;;;;;;3.45;3.15;;;;;;;;;;6246959;23;20078;-59
2021/07/04 12:27:03;;;;;;;3.38;3.03;;;;;;;;;;6220160;23;19992;-59
2021/07/04 12:29:29;;;;;;;3.20;3.00;;;;;;;;;;6246988;23;20004;-59
2021/07/04 12:32:05;;;;;;;3.75;3.45;;;;;;;;;;6247288;23;19996;-59
2021/07/04 12:34:31;;;;;;;3.70;3.40;;;;;;;;;;6247225;23;20008;-59
2021/07/04 12:36:57;;;;;;;3.08;2.88;;;;;;;;;;6247037;23;20381;-59
2021/07/04 12:39:32;;;;;;;3.55;3.35;;;;;;;;;;6247024;23;20039;-58
2021/07/04 12:41:58;;;;;;;3.15;2.97;;;;;;;;;;6247024;23;20014;-59
2021/07/04 12:44:23;;;;;;;4.57;3.22;;;;;;;;;;6246940;23;20002;-59
2021/07/04 12:46:49;;;;;;;3.38;3.17;;;;;;;;;;6246866;23;20087;-59
2021/07/04 12:49:15;;;;;;;3.30;3.10;;;;;;;;;;6246848;23;19999;-59
2021/07/04 12:51:43;;;;;;;3.50;3.30;;;;;;;;;;6220243;23;20004;-59
2021/07/04 12:54:22;;;;;;;3.35;3.15;;;;;;;;;;6246869;23;20000;-59
2021/07/04 12:56:49;;;;;;;3.63;3.33;;;;;;;;;;6247030;23;20008;-59
2021/07/04 12:59:33;;;;;;;3.03;2.83;;;;;;;;;;6246877;23;20071;-59
2021/07/04 13:02:00;;;;;;;3.33;3.10;;;;;;;;;;6246780;23;20008;-59
2021/07/04 13:04:25;;;;;;;4.00;3.22;;;;;;;;;;6246558;23;20262;-59
2021/07/04 13:06:56;;;;;;;3.08;2.88;;;;;;;;;;6246696;23;20384;-59
2021/07/04 13:09:21;;;;;;;;;;;;;;;;;;6247123;23;20420;-59
2021/07/04 13:12:02;;;;;;;3.22;3.03;;;;;;;;;;6246562;23;19910;-59
2021/07/04 13:14:48;;;;;;;3.25;3.05;;;;;;;;;;6216232;23;20431;-59
2021/07/04 13:17:15;;;;;;;3.10;2.90;;;;;;;;;;6216501;23;20004;-59
2021/07/04 13:19:41;;;;;;;3.70;3.40;;;;;;;;;;6216256;23;20332;-59
2021/07/04 13:22:14;;;;;;;3.20;3.00;;;;;;;;;;6216173;23;20031;-59
2021/07/04 13:24:43;;;;;;;3.75;3.40;;;;;;;;;;6215890;23;20011;-59
2021/07/04 13:27:16;;;;;;;3.35;3.15;;;;;;;;;;6216194;23;20059;-59
2021/07/04 13:29:42;;;;;;;3.50;3.30;;;;;;;;;;6216051;23;20004;-59
2021/07/04 13:32:09;;;;;;;3.42;3.22;;;;;;;;;;6216057;23;20122;-59
2021/07/04 13:34:35;;;;;;;4.40;3.40;;;;;;;;;;6216102;23;20027;-59
2021/07/04 13:37:00;;;;;;;3.38;3.17;;;;;;;;;;6215964;23;20005;-59
2021/07/04 13:39:27;;;;;;;3.22;3.03;;;;;;;;;;6216145;23;20039;-59
2021/07/04 13:41:53;;;;;;;3.15;2.85;;;;;;;;;;6216007;23;20047;-59
2021/07/04 13:44:18;;;;;;;3.08;2.88;;;;;;;;;;6216031;23;20083;-59
2021/07/04 13:46:44;;;;;;;3.20;2.90;;;;;;;;;;6215995;23;20031;-59
2021/07/04 13:49:09;;;;;;;3.08;2.78;;;;;;;;;;6215924;23;20007;-59
2021/07/04 13:51:35;;;;;;;3.10;2.88;;;;;;;;;;6215929;23;20000;-59
2021/07/04 13:54:00;;;;;;;3.35;2.90;;;;;;;;;;6215795;23;20009;-59
2021/07/04 13:56:26;;;;;;;3.50;3.20;;;;;;;;;;6215996;23;20003;-59
2021/07/04 13:58:51;;;;;;;3.38;3.08;;;;;;;;;;6215878;23;20087;-59
2021/07/04 14:01:17;;;;;;;3.22;2.92;;;;;;;;;;6189505;23;20001;-59
2021/07/04 14:03:42;;;;;;;3.10;2.90;;;;;;;;;;6215820;23;20377;-59
2021/07/04 14:06:07;;;;;;;3.20;2.70;;;;;;;;;;6215302;23;20368;-59
2021/07/04 14:08:33;;;;;;;3.00;2.80;;;;;;;;;;6215994;23;20000;-59
2021/07/04 14:10:58;;;;;;;3.17;2.97;;;;;;;;;;6215755;23;20301;-59
2021/07/04 14:13:24;;;;;;;3.05;2.78;;;;;;;;;;6233232;23;20016;-59
2021/07/04 14:15:50;;;;;;;3.35;3.10;;;;;;;;;;6246177;23;20383;-59
2021/07/04 14:18:16;;;;;;;3.30;2.92;;;;;;;;;;6246193;23;20058;-59
2021/07/04 14:20:41;;;;;;;3.42;2.85;;;;;;;;;;6219255;23;19996;-59
2021/07/04 14:23:07;;;;;;;2.58;2.47;;;;;;;;;;6246010;23;20500;-59
2021/07/04 14:25:34;;;;;;;3.20;3.00;;;;;;;;;;6245805;23;20482;-59
2021/07/04 14:28:00;;;;;;;2.90;2.60;;;;;;;;;;6245995;23;20126;-59
2021/07/04 14:30:26;;;;;;;2.92;2.67;;;;;;;;;;6245976;23;20413;-59
2021/07/04 14:32:53;;;;;;;2.75;2.60;;;;;;;;;;6245913;23;20000;-59
2021/07/04 14:35:20;;;;;;;3.05;2.80;;;;;;;;;;6245484;23;20004;-59
2021/07/04 14:37:46;;;;;;;2.88;2.67;;;;;;;;;;6245963;23;20004;-59
2021/07/04 14:40:12;;;;;;;2.53;2.42;;;;;;;;;;6246031;23;20313;-59
2021/07/04 14:42:37;;;;;;;2.72;2.60;;;;;;;;;;6246000;23;20023;-59
2021/07/04 14:45:06;;;;;;;3.22;3.00;;;;;;;;;;6245814;23;19997;-59
2021/07/04 14:47:32;;;;;;;2.90;2.70;;;;;;;;;;6219274;23;20031;-59
2021/07/04 14:49:57;;;;;;;2.70;2.60;;;;;;;;;;6245815;23;20000;-59